Time;durP1;ratioP1;P1;durP2;ratioP2;P2;SDS_P1;SDS_P2;PMS_P1;PMS_P2;Temp;Humidity;BMP_temperature;BMP_pressure;BME280_temperature;BME280_humidity;BME280_pressure;Samples;Min_cycle;Max_cycle;Signal;HPM_P1;HPM_P2
2020/12/31 00:00:42;;;;;;;2.58;1.67;;;;;;;13.01;48.76;101128.66;5033975;28;20456;-42
2020/12/31 00:03:07;;;;;;;9.68;2.55;;;;;;;13.08;48.04;101129.28;5033502;28;20044;-42
2020/12/31 00:05:33;;;;;;;5.63;2.88;;;;;;;13.07;48.17;101127.66;5034126;28;20038;-42
2020/12/31 00:07:58;;;;;;;2.42;1.73;;;;;;;12.88;48.77;101131.66;5033938;28;20533;-43
2020/12/31 00:10:24;;;;;;;7.43;1.55;;;;;;;12.84;48.17;101129.44;5034233;28;20043;-42
2020/12/31 00:12:50;;;;;;;4.57;1.42;;;;;;;12.94;47.29;101123.41;5034131;28;20042;-42
2020/12/31 00:15:15;;;;;;;5.03;1.50;;;;;;;12.94;47.51;101119.91;5033999;28;20084;-42
2020/12/31 00:17:41;;;;;;;7.63;2.13;;;;;;;12.93;47.05;101120.97;5033916;28;20044;-43
2020/12/31 00:20:08;;;;;;;3.45;2.28;;;;;;;12.96;46.67;101123.19;5033032;28;20083;-41
2020/12/31 00:22:34;;;;;;;3.92;2.35;;;;;;;13.08;46.62;101126.59;5033497;28;20450;-43
2020/12/31 00:24:59;;;;;;;2.80;1.73;;;;;;;13.08;46.75;101118.53;5033859;28;20037;-42
2020/12/31 00:27:25;;;;;;;3.42;1.73;;;;;;;13.01;47.01;101120.56;5033317;28;20523;-41
2020/12/31 00:29:50;;;;;;;4.00;1.58;;;;;;;13.11;46.69;101128.78;5033695;28;20411;-42
2020/12/31 00:32:16;;;;;;;2.28;0.47;;;;;;;13.16;46.49;101118.06;5033360;28;20657;-44
2020/12/31 00:34:41;;;;;;;2.38;1.00;;;;;;;13.13;46.65;101121.28;5033117;28;20064;-41
2020/12/31 00:37:07;;;;;;;0.57;0.45;;;;;;;13.01;47.74;101118.69;5032536;28;20041;-43
2020/12/31 00:39:32;;;;;;;6.57;0.90;;;;;;;13.16;46.78;101123.47;5032405;28;20037;-44
2020/12/31 00:41:57;;;;;;;2.00;0.82;;;;;;;13.19;46.87;101114.91;5032302;28;20041;-43
2020/12/31 00:44:23;;;;;;;2.63;1.65;;;;;;;13.18;46.87;101117.84;5032334;28;20033;-42
2020/12/31 00:46:48;;;;;;;4.70;1.27;;;;;;;13.23;46.51;101117.91;5032367;28;20545;-50
2020/12/31 00:49:14;;;;;;;1.33;0.50;;;;;;;13.19;46.56;101117.59;5032061;28;20430;-46
2020/12/31 00:51:39;;;;;;;7.68;1.35;;;;;;;13.14;47.17;101120.22;5032407;28;20124;-42
2020/12/31 00:54:05;;;;;;;5.07;0.93;;;;;;;13.17;46.94;101122.41;5032317;28;20037;-43
2020/12/31 00:56:30;;;;;;;9.35;1.15;;;;;;;13.18;47.38;101120.53;5026861;28;20479;-42
2020/12/31 00:58:55;;;;;;;4.97;1.08;;;;;;;13.20;47.55;101118.41;5031611;28;20468;-42
2020/12/31 01:01:21;;;;;;;2.67;0.85;;;;;;;13.16;47.58;101125.34;5032278;28;20509;-42
2020/12/31 01:03:47;;;;;;;4.70;0.90;;;;;;;13.19;46.99;101116.78;5032012;28;20040;-45
2020/12/31 01:06:12;;;;;;;2.63;0.63;;;;;;;13.14;47.92;101111.31;5031817;28;20052;-45
2020/12/31 01:08:38;;;;;;;5.35;1.90;;;;;;;13.20;48.54;101124.63;5031470;28;20042;-42
2020/12/31 01:11:04;;;;;;;5.85;1.60;;;;;;;13.18;48.31;101109.75;5032161;28;20053;-42
2020/12/31 01:13:29;;;;;;;2.55;1.10;;;;;;;13.05;48.61;101114.44;5031741;28;20107;-42
2020/12/31 01:15:55;;;;;;;2.67;1.45;;;;;;;13.10;48.73;101116.38;5031627;28;20076;-42
2020/12/31 01:18:20;;;;;;;2.30;1.08;;;;;;;13.19;48.84;101120.28;5031862;28;20124;-42
2020/12/31 01:20:45;;;;;;;3.92;1.38;;;;;;;13.18;48.54;101118.69;5031796;28;20084;-42
2020/12/31 01:23:11;;;;;;;1.08;0.43;;;;;;;13.10;49.38;101129.03;5031715;28;20037;-42
2020/12/31 01:25:37;;;;;;;0.80;0.30;;;;;;;13.11;50.26;101119.88;5032040;28;20407;-42
2020/12/31 01:28:02;;;;;;;2.15;1.05;;;;;;;12.95;49.64;101124.22;5031826;28;20037;-48
2020/12/31 01:30:29;;;;;;;3.03;1.25;;;;;;;12.98;49.92;101121.84;5031532;28;20033;-42
2020/12/31 01:32:55;;;;;;;2.58;0.63;;;;;;;13.09;49.43;101125.50;5031598;28;20087;-45
2020/12/31 01:35:20;;;;;;;2.13;0.20;;;;;;;13.14;48.72;101117.50;5003745;28;803137;-42
2020/12/31 01:37:46;;;;;;;0.90;0.38;;;;;;;13.02;50.42;101114.09;5031755;28;20064;-42
2020/12/31 01:40:12;;;;;;;0.45;0.25;;;;;;;13.02;49.16;101114.09;5032439;28;20038;-42
2020/12/31 01:42:41;;;;;;;6.55;1.05;;;;;;;12.98;49.44;101110.28;5032521;28;20044;-42
2020/12/31 01:45:07;;;;;;;2.78;1.00;;;;;;;13.14;49.36;101120.22;5032277;28;20033;-44
2020/12/31 01:47:33;;;;;;;0.52;0.30;;;;;;;12.94;50.11;101120.72;5032157;28;20167;-43
2020/12/31 01:49:58;;;;;;;2.92;0.80;;;;;;;12.95;49.95;101122.34;5032332;28;20391;-45
2020/12/31 01:52:24;;;;;;;3.72;1.35;;;;;;;13.00;48.72;101110.84;5032528;28;20041;-43
2020/12/31 01:54:50;;;;;;;1.35;0.82;;;;;;;13.07;48.81;101111.50;5031106;28;20042;-44
2020/12/31 01:57:16;;;;;;;2.67;0.65;;;;;;;12.91;48.80;101106.94;5032583;28;20463;-45
2020/12/31 01:59:41;;;;;;;9.27;0.85;;;;;;;12.96;49.22;101107.84;5032225;28;20037;-43
2020/12/31 02:02:07;;;;;;;3.15;0.65;;;;;;;13.07;49.15;101113.38;5032286;28;20041;-42
2020/12/31 02:04:38;;;;;;;5.30;0.98;;;;;;;13.05;48.68;101119.00;5031952;28;20095;-42
2020/12/31 02:07:05;;;;;;;10.57;1.50;;;;;;;13.12;48.83;101114.25;5032187;28;20124;-43
2020/12/31 02:09:30;;;;;;;2.03;1.42;;;;;;;13.05;48.60;101114.44;5031989;28;20472;-45
2020/12/31 02:12:01;;;;;;;3.92;1.10;;;;;;;13.04;48.04;101114.66;5031400;28;20037;-41
2020/12/31 02:14:26;;;;;;;1.27;0.97;;;;;;;13.09;48.04;101108.56;5031938;28;20037;-44
2020/12/31 02:16:52;;;;;;;2.72;1.25;;;;;;;13.12;48.06;101113.47;5032277;28;20064;-45
2020/12/31 02:19:17;;;;;;;3.03;1.10;;;;;;;13.14;47.97;101114.81;5031747;28;20079;-44
2020/12/31 02:21:47;;;;;;;2.25;1.33;;;;;;;13.14;47.89;101114.81;5031678;28;20072;-42
2020/12/31 02:24:14;;;;;;;2.03;1.02;;;;;;;13.17;47.41;101111.66;5031390;28;20116;-42
2020/12/31 02:26:41;;;;;;;1.00;0.60;;;;;;;13.06;47.64;101107.19;5030970;28;20037;-42
2020/12/31 02:29:09;;;;;;;1.63;1.30;;;;;;;13.09;48.25;101098.59;5031601;28;20041;-44
2020/12/31 02:31:35;;;;;;;3.03;1.30;;;;;;;12.91;48.68;101101.56;5031234;28;20044;-42
2020/12/31 02:34:02;;;;;;;7.40;1.10;;;;;;;12.81;47.92;101099.53;5031247;28;20104;-43
2020/12/31 02:36:30;;;;;;;4.65;1.98;;;;;;;12.87;48.14;101101.25;5031540;28;20080;-47
2020/12/31 02:38:59;;;;;;;1.20;0.75;;;;;;;13.02;47.56;101106.03;5031356;28;20048;-42
2020/12/31 02:41:25;;;;;;;1.02;0.73;;;;;;;13.04;47.75;101099.34;5031579;28;20041;-42
2020/12/31 02:43:51;;;;;;;1.23;0.60;;;;;;;13.04;48.07;101096.66;5031152;28;20045;-43
2020/12/31 02:46:20;;;;;;;6.03;0.43;;;;;;;12.98;48.33;101094.13;5031126;28;20040;-42
2020/12/31 02:48:46;;;;;;;2.50;1.42;;;;;;;12.93;48.29;101099.44;5029337;28;20029;-43
2020/12/31 02:51:12;;;;;;;2.17;0.70;;;;;;;12.86;48.62;101102.28;5019792;28;20038;-44
2020/12/31 02:53:37;;;;;;;3.28;1.33;;;;;;;12.77;48.94;101093.81;5027640;28;20109;-45
2020/12/31 02:56:14;;;;;;;5.30;1.60;;;;;;;12.53;49.68;101087.78;5024056;28;20474;-42
2020/12/31 02:58:40;;;;;;;1.30;0.57;;;;;;;12.58;49.71;101089.75;5022143;28;20049;-46
2020/12/31 03:01:06;;;;;;;2.15;0.80;;;;;;;12.61;50.31;101086.56;5024254;28;20496;-43
2020/12/31 03:03:32;;;;;;;6.55;0.68;;;;;;;12.62;49.68;101094.41;5030949;28;20037;-47
2020/12/31 03:05:57;;;;;;;5.38;0.95;;;;;;;12.36;51.00;101098.53;5031068;28;20044;-43
2020/12/31 03:08:23;;;;;;;3.47;1.67;;;;;;;12.35;50.76;101088.81;5030722;28;20029;-42
2020/12/31 03:10:50;;;;;;;3.20;1.25;;;;;;;12.43;51.02;101088.44;5030364;28;20033;-45
2020/12/31 03:13:16;;;;;;;2.35;1.70;;;;;;;12.42;50.96;101089.47;5030791;28;20041;-41
2020/12/31 03:15:41;;;;;;;2.45;1.85;;;;;;;12.18;52.08;101086.09;5030729;28;20046;-44
2020/12/31 03:18:07;;;;;;;6.35;1.08;;;;;;;12.18;52.04;101090.66;5030866;28;20045;-43
2020/12/31 03:20:32;;;;;;;3.95;1.15;;;;;;;12.24;52.02;101093.22;5030821;28;20078;-44
2020/12/31 03:22:57;;;;;;;7.82;1.60;;;;;;;12.36;51.34;101095.00;5030805;28;20439;-43
2020/12/31 03:25:23;;;;;;;2.30;0.85;;;;;;;12.25;51.93;101099.41;5030725;28;20380;-42
2020/12/31 03:27:48;;;;;;;0.70;0.45;;;;;;;12.36;52.00;101093.16;5030666;28;20140;-42
2020/12/31 03:30:14;;;;;;;4.10;1.15;;;;;;;12.27;51.98;101090.03;5030535;28;20498;-42
2020/12/31 03:32:39;;;;;;;4.85;1.98;;;;;;;12.29;51.97;101087.13;5029808;28;20480;-43
2020/12/31 03:35:05;;;;;;;2.28;1.27;;;;;;;12.43;51.68;101082.22;5030273;28;20061;-43
2020/12/31 03:37:30;;;;;;;0.98;0.70;;;;;;;12.56;50.96;101089.19;5030816;28;20038;-42
2020/12/31 03:39:56;;;;;;;2.08;1.05;;;;;;;12.62;50.85;101093.56;5030325;28;20396;-42
2020/12/31 03:42:21;;;;;;;1.83;0.98;;;;;;;12.63;51.25;101089.84;5030331;28;20037;-42
2020/12/31 03:44:47;;;;;;;5.85;2.03;;;;;;;12.52;51.38;101088.00;5030367;28;20048;-45
2020/12/31 03:47:14;;;;;;;3.72;0.93;;;;;;;12.39;52.09;101089.97;5030801;28;20099;-41
2020/12/31 03:49:40;;;;;;;7.03;1.25;;;;;;;12.38;51.68;101082.97;5030630;28;20056;-45
2020/12/31 03:52:05;;;;;;;0.75;0.32;;;;;;;12.39;51.67;101078.41;5030884;28;20033;-43
2020/12/31 03:54:30;;;;;;;4.07;2.78;;;;;;;12.46;51.75;101069.13;5030169;28;20037;-46
2020/12/31 03:56:56;;;;;;;6.10;2.17;;;;;;;12.47;51.93;101070.75;5029962;28;20387;-44
2020/12/31 03:59:21;;;;;;;2.78;0.70;;;;;;;12.36;52.43;101063.56;5030634;28;20092;-44
2020/12/31 04:01:47;;;;;;;1.35;0.63;;;;;;;12.30;52.38;101064.53;5030350;28;20040;-45
2020/12/31 04:04:13;;;;;;;4.60;1.85;;;;;;;12.36;52.63;101060.88;5030363;28;20033;-46
2020/12/31 04:06:39;;;;;;;10.00;5.10;;;;;;;12.29;53.18;101060.22;5030566;28;20073;-45
2020/12/31 04:09:04;;;;;;;17.92;10.43;;;;;;;12.08;53.37;101057.19;5030608;28;20068;-43
2020/12/31 04:11:30;;;;;;;10.23;8.73;;;;;;;12.10;53.84;101060.44;5030482;28;20072;-42
2020/12/31 04:13:55;;;;;;;7.57;4.57;;;;;;;12.17;53.53;101054.09;5029826;28;20092;-48
2020/12/31 04:16:21;;;;;;;7.55;3.60;;;;;;;12.19;53.24;101060.06;5029779;28;20026;-44
2020/12/31 04:18:46;;;;;;;5.00;1.27;;;;;;;12.17;53.26;101064.84;5031726;28;20030;-44
2020/12/31 04:21:12;;;;;;;3.03;1.75;;;;;;;12.10;53.74;101065.00;5033089;28;20592;-46
2020/12/31 04:23:40;;;;;;;2.47;1.48;;;;;;;12.15;53.80;101056.19;5033650;28;20057;-44
2020/12/31 04:26:09;;;;;;;2.33;1.20;;;;;;;12.14;53.58;101065.34;5033643;28;20041;-43
2020/12/31 04:28:34;;;;;;;3.58;1.13;;;;;;;11.99;54.23;101065.84;5033737;28;20038;-45
2020/12/31 04:31:00;;;;;;;4.38;1.75;;;;;;;11.97;54.12;101071.47;5034140;28;20374;-42
2020/12/31 04:33:25;;;;;;;9.40;3.60;;;;;;;11.95;54.05;101070.91;5033778;28;20620;-44
2020/12/31 04:35:51;;;;;;;10.05;1.33;;;;;;;11.98;53.99;101065.06;5033313;28;20470;-45
2020/12/31 04:38:16;;;;;;;7.32;1.17;;;;;;;12.06;54.03;101070.06;5033837;28;20422;-45
2020/12/31 04:40:44;;;;;;;2.40;0.70;;;;;;;12.08;54.25;101069.81;5033576;28;20037;-49
2020/12/31 04:43:10;;;;;;;1.42;0.70;;;;;;;12.06;53.80;101070.06;5033610;28;20160;-43
2020/12/31 04:45:38;;;;;;;1.88;0.80;;;;;;;12.01;54.15;101067.28;5033239;28;20514;-44
2020/12/31 04:48:08;;;;;;;5.13;1.92;;;;;;;12.07;54.48;101068.16;5033225;28;20136;-43
2020/12/31 04:50:39;;;;;;;1.98;1.42;;;;;;;12.08;54.66;101061.75;5033061;28;20467;-48
2020/12/31 04:53:07;;;;;;;2.75;1.55;;;;;;;12.17;54.07;101064.84;5033283;28;20037;-43
2020/12/31 04:55:40;;;;;;;1.75;0.80;;;;;;;12.21;54.35;101060.63;5031739;28;20048;-45
2020/12/31 04:58:07;;;;;;;2.80;1.75;;;;;;;12.10;54.52;101052.38;5032980;28;20468;-43
2020/12/31 05:00:33;;;;;;;2.55;1.65;;;;;;;12.20;54.87;101050.91;5033178;28;20043;-43
2020/12/31 05:02:58;;;;;;;1.58;0.95;;;;;;;12.11;55.13;101053.19;5032615;28;20120;-43
2020/12/31 05:05:24;;;;;;;6.55;1.13;;;;;;;12.14;55.33;101057.28;5025588;28;20092;-44
2020/12/31 05:07:51;;;;;;;5.85;2.65;;;;;;;12.13;55.10;101052.94;5023448;28;20498;-48
2020/12/31 05:10:16;;;;;;;2.70;0.88;;;;;;;12.10;55.36;101060.44;5032349;28;20029;-45
2020/12/31 05:12:42;;;;;;;6.03;0.82;;;;;;;12.10;55.45;101065.81;5032988;28;20663;-45
2020/12/31 05:15:07;;;;;;;4.35;0.70;;;;;;;12.03;55.78;101056.28;5032798;28;20112;-43
2020/12/31 05:17:33;;;;;;;1.80;0.90;;;;;;;11.98;55.81;101057.00;5032563;28;20120;-47
2020/12/31 05:19:58;;;;;;;12.85;1.38;;;;;;;11.96;55.93;101066.38;5032527;28;20369;-44
2020/12/31 05:22:24;;;;;;;4.72;0.60;;;;;;;11.88;56.45;101057.56;5032669;28;20044;-47
2020/12/31 05:24:51;;;;;;;3.13;1.10;;;;;;;11.79;56.66;101044.78;5032428;28;20751;-43
2020/12/31 05:27:28;;;;;;;3.30;0.90;;;;;;;11.86;56.55;101043.56;5032650;28;20392;-45
2020/12/31 05:29:54;;;;;;;9.95;0.65;;;;;;;11.85;56.14;101038.44;5030687;28;20083;-47
2020/12/31 05:32:21;;;;;;;1.70;1.30;;;;;;;11.91;56.06;101037.50;5032729;28;20029;-45
2020/12/31 05:34:46;;;;;;;1.25;0.35;;;;;;;11.87;56.25;101037.16;5031850;28;20488;-48
2020/12/31 05:37:14;;;;;;;3.17;1.25;;;;;;;11.83;56.36;101043.22;5032916;28;20033;-45
2020/12/31 05:39:55;;;;;;;5.22;1.15;;;;;;;11.87;56.13;101039.84;5032293;28;20460;-45
2020/12/31 05:42:22;;;;;;;3.50;1.02;;;;;;;11.86;56.24;101037.38;5029770;28;20039;-45
2020/12/31 05:45:02;;;;;;;2.30;1.35;;;;;;;11.76;56.22;101040.69;5022231;28;20122;-48
2020/12/31 05:47:28;;;;;;;3.15;1.15;;;;;;;11.66;56.84;101045.88;5018738;28;20037;-45
2020/12/31 05:49:53;;;;;;;3.20;1.65;;;;;;;11.77;56.08;101045.03;5023657;28;20021;-42
2020/12/31 05:52:37;;;;;;;2.10;0.52;;;;;;;11.73;56.16;101052.75;5029154;28;20087;-44
2020/12/31 05:55:05;;;;;;;1.25;0.73;;;;;;;11.57;56.67;101058.03;5025684;28;20087;-47
2020/12/31 05:58:16;;;;;;;13.55;2.80;;;;;;;11.45;57.08;101050.03;5024175;28;20036;-47
2020/12/31 06:00:54;;;;;;;1.30;0.68;;;;;;;11.50;57.01;101050.13;4984351;28;20030;-45
2020/12/31 06:03:34;;;;;;;1.00;0.75;;;;;;;11.50;56.93;101055.47;5023487;28;20042;-46
2020/12/31 06:06:07;;;;;;;1.45;0.68;;;;;;;11.48;56.93;101058.44;5025747;28;20029;-46
2020/12/31 06:08:33;;;;;;;7.65;1.63;;;;;;;11.35;57.08;101062.19;5024117;28;20049;-43
2020/12/31 06:11:04;;;;;;;0.90;0.57;;;;;;;11.10;57.73;101057.09;5026210;28;20037;-43
2020/12/31 06:13:38;;;;;;;1.95;1.33;;;;;;;11.07;58.13;101054.06;5024370;28;20395;-43
2020/12/31 06:16:05;;;;;;;3.90;1.35;;;;;;;11.21;57.79;101065.38;5024307;28;20480;-44
2020/12/31 06:18:37;;;;;;;8.48;3.30;;;;;;;11.18;57.91;101058.59;5027508;28;20048;-43
2020/12/31 06:21:03;;;;;;;5.97;1.45;;;;;;;11.17;57.87;101073.06;5026106;28;20390;-43
2020/12/31 06:23:38;;;;;;;2.75;1.55;;;;;;;11.16;57.93;101076.78;5026570;28;20038;-48
2020/12/31 06:26:13;;;;;;;7.55;2.58;;;;;;;11.17;57.88;101081.13;5024402;28;20036;-45
2020/12/31 06:28:48;;;;;;;8.50;3.60;;;;;;;11.15;57.93;101080.53;5023570;28;20113;-47
2020/12/31 06:31:13;;;;;;;7.75;1.42;;;;;;;11.00;58.29;101080.19;5031365;28;20096;-45
2020/12/31 06:33:48;;;;;;;7.97;2.53;;;;;;;10.90;58.41;101089.63;5031541;28;20033;-44
2020/12/31 06:36:14;;;;;;;4.43;1.35;;;;;;;10.95;58.19;101088.94;5031500;28;20064;-41
2020/12/31 06:38:45;;;;;;;2.60;1.15;;;;;;;10.94;58.48;101090.00;5031468;28;20033;-40
2020/12/31 06:41:37;;;;;;;6.53;1.48;;;;;;;11.00;58.24;101096.28;5031050;28;20029;-40
2020/12/31 06:44:11;;;;;;;3.35;1.77;;;;;;;10.94;58.44;101096.19;5031051;28;20049;-42
2020/12/31 06:46:44;;;;;;;1.67;0.68;;;;;;;11.06;58.00;101101.56;5031252;28;20039;-41
2020/12/31 06:49:11;;;;;;;4.38;1.00;;;;;;;10.98;57.75;101094.66;5030640;28;20091;-42
2020/12/31 06:51:37;;;;;;;3.72;1.55;;;;;;;11.01;57.91;101092.53;5031263;28;20080;-41
2020/12/31 06:54:03;;;;;;;1.90;1.52;;;;;;;11.01;58.28;101100.59;5030829;28;20033;-46
2020/12/31 06:56:47;;;;;;;6.68;2.22;;;;;;;10.99;58.04;101100.81;5030919;28;20120;-43
2020/12/31 06:59:40;;;;;;;1.58;0.93;;;;;;;10.76;58.43;101096.25;5031072;28;20045;-43
2020/12/31 07:02:09;;;;;;;6.22;1.58;;;;;;;10.74;58.36;101101.84;5031347;28;20481;-44
2020/12/31 07:04:36;;;;;;;1.42;1.00;;;;;;;10.70;58.79;101095.34;5030651;28;20627;-44
2020/12/31 07:07:21;;;;;;;5.47;1.77;;;;;;;10.75;58.62;101100.00;5031148;28;20030;-45
2020/12/31 07:09:52;;;;;;;4.68;1.17;;;;;;;10.66;58.74;101087.97;5029758;28;20060;-43
2020/12/31 07:12:30;;;;;;;2.23;0.90;;;;;;;10.67;59.09;101092.31;5021332;28;20523;-46
2020/12/31 07:14:56;;;;;;;3.20;1.17;;;;;;;10.58;59.14;101098.00;5024178;28;20065;-43
2020/12/31 07:17:22;;;;;;;5.93;3.88;;;;;;;10.68;58.61;101097.44;5030307;28;20073;-42
2020/12/31 07:19:48;;;;;;;8.77;6.13;;;;;;;10.70;58.64;101094.53;5021243;28;20083;-45
2020/12/31 07:22:13;;;;;;;4.85;3.35;;;;;;;-146.19;100.00;63747.78;5030889;28;20034;-72
2020/12/31 07:25:01;;;;;;;3.13;1.63;;;;;;;-146.19;100.00;63747.78;5016567;28;20922;-70
2020/12/31 07:27:41;;;;;;;6.07;2.40;;;;;;;-146.19;100.00;63747.78;5025592;28;20037;-70
2020/12/31 07:30:11;;;;;;;8.52;6.25;;;;;;;-146.19;100.00;63747.78;5019617;28;20503;-71
2020/12/31 07:32:55;;;;;;;9.05;4.20;;;;;;;-146.19;100.00;63747.78;5013695;28;20416;-71
2020/12/31 07:35:51;;;;;;;5.15;2.83;;;;;;;-146.19;100.00;63747.78;5026367;28;20053;-69
2020/12/31 07:38:18;;;;;;;3.17;1.95;;;;;;;-146.19;100.00;63747.78;5026352;28;20060;-70
2020/12/31 07:40:53;;;;;;;14.23;9.00;;;;;;;-146.19;100.00;63747.78;5026230;28;20499;-69
2020/12/31 07:43:23;;;;;;;5.38;2.95;;;;;;;-146.19;100.00;63747.78;5025956;28;20041;-70
2020/12/31 07:45:51;;;;;;;13.05;4.07;;;;;;;-146.19;100.00;63747.78;5026789;28;20049;-69
2020/12/31 07:48:18;;;;;;;6.85;2.75;;;;;;;-146.19;100.00;63747.78;5026319;28;20038;-71
2020/12/31 07:50:44;;;;;;;3.70;2.35;;;;;;;-146.19;100.00;63747.78;5025848;28;20064;-70
2020/12/31 07:53:11;;;;;;;16.10;4.95;;;;;;;-146.19;100.00;63747.78;5027899;28;20075;-71
2020/12/31 07:55:37;;;;;;;6.88;4.85;;;;;;;-146.19;100.00;63747.78;5029974;28;20032;-70
2020/12/31 07:58:06;;;;;;;9.27;4.60;;;;;;;-146.19;100.00;63747.78;5030386;28;20049;-71
2020/12/31 08:00:33;;;;;;;8.40;3.33;;;;;;;-146.19;100.00;63747.78;5030539;28;20068;-70
2020/12/31 08:02:59;;;;;;;5.55;3.65;;;;;;;-146.19;100.00;63747.78;5022658;28;20084;-71
2020/12/31 08:05:26;;;;;;;3.45;2.45;;;;;;;-146.19;100.00;63747.78;5030273;28;20051;-70
2020/12/31 08:07:53;;;;;;;7.30;5.57;;;;;;;-146.19;100.00;63747.78;5030047;28;20045;-70
2020/12/31 08:10:20;;;;;;;11.55;5.32;;;;;;;-146.19;100.00;63747.78;5030172;28;20029;-71
2020/12/31 08:12:55;;;;;;;5.72;4.32;;;;;;;-146.19;100.00;63747.78;5029991;28;20049;-69
2020/12/31 08:15:22;;;;;;;11.80;4.20;;;;;;;-146.19;100.00;63747.78;5029904;28;20056;-70
2020/12/31 08:17:52;;;;;;;5.93;2.80;;;;;;;-146.19;100.00;63747.78;5026118;28;20502;-68
2020/12/31 08:20:19;;;;;;;6.85;5.57;;;;;;;-146.19;100.00;63747.78;5022079;28;20030;-64
2020/12/31 08:22:50;;;;;;;6.85;5.10;;;;;;;-146.19;100.00;63747.78;5026206;28;20037;-73
2020/12/31 08:25:19;;;;;;;24.93;4.90;;;;;;;-146.19;100.00;63747.78;5024498;28;20539;-69
2020/12/31 08:27:46;;;;;;;6.70;4.55;;;;;;;-146.19;100.00;63747.78;5027799;28;20650;-77
2020/12/31 08:30:12;;;;;;;10.35;6.32;;;;;;;-146.19;100.00;63747.78;5035892;28;20037;-71
2020/12/31 08:32:49;;;;;;;13.27;8.15;;;;;;;-146.19;100.00;63747.78;5032472;28;20089;-71
2020/12/31 08:35:28;;;;;;;16.23;6.00;;;;;;;-146.19;100.00;63747.78;5029513;28;20105;-70
2020/12/31 08:38:03;;;;;;;7.95;5.82;;;;;;;-146.19;100.00;63747.78;5029329;28;20040;-72
2020/12/31 08:40:33;;;;;;;6.18;2.60;;;;;;;-146.19;100.00;63747.78;5025767;28;20034;-74
2020/12/31 08:42:59;;;;;;;5.80;3.58;;;;;;;-146.19;100.00;63747.78;5016879;28;20071;-66
2020/12/31 08:45:32;;;;;;;6.20;3.53;;;;;;;-146.19;100.00;63747.78;5028990;28;20037;-64
2020/12/31 08:48:23;;;;;;;6.18;3.38;;;;;;;-146.19;100.00;63747.78;5029521;28;20033;-70
2020/12/31 08:51:09;;;;;;;3.13;2.10;;;;;;;-146.19;100.00;63747.78;5029448;28;20045;-72
2020/12/31 08:53:51;;;;;;;5.18;3.15;;;;;;;-146.19;100.00;63747.78;5024774;28;21885;-69
2020/12/31 08:56:18;;;;;;;23.23;12.50;;;;;;;-146.19;100.00;63747.78;5018805;28;20042;-68
2020/12/31 08:58:44;;;;;;;72.55;35.33;;;;;;;-146.19;100.00;63747.78;5029378;28;20087;-55
2020/12/31 09:01:27;;;;;;;15.77;9.52;;;;;;;-146.19;100.00;63747.78;5016303;28;20038;-57
2020/12/31 09:04:19;;;;;;;14.40;11.52;;;;;;;-146.19;100.00;63747.78;5028951;28;20038;-55
2020/12/31 09:06:49;;;;;;;50.10;28.27;;;;;;;-146.19;100.00;63747.78;5025898;28;20037;-55
2020/12/31 09:09:22;;;;;;;28.05;22.80;;;;;;;-146.19;100.00;63747.78;5025580;28;20037;-55
2020/12/31 09:11:57;;;;;;;27.40;18.75;;;;;;;-146.19;100.00;63747.78;5025597;28;20055;-54
2020/12/31 09:14:24;;;;;;;22.38;17.17;;;;;;;-146.19;100.00;63747.78;5026103;28;20045;-55
2020/12/31 09:16:50;;;;;;;28.55;19.30;;;;;;;-146.19;100.00;63747.78;5025668;28;20041;-55
2020/12/31 09:19:16;;;;;;;25.88;16.83;;;;;;;-146.19;100.00;63747.78;5026648;28;20468;-56
2020/12/31 09:21:42;;;;;;;20.83;16.27;;;;;;;-146.19;100.00;63747.78;5021837;28;20046;-54
2020/12/31 09:24:18;;;;;;;28.08;17.65;;;;;;;-146.19;100.00;63747.78;5024395;28;20033;-53
2020/12/31 09:26:54;;;;;;;20.45;11.80;;;;;;;-146.19;100.00;63747.78;5024913;28;20033;-53
2020/12/31 09:29:20;;;;;;;26.20;15.07;;;;;;;-146.19;100.00;63747.78;5020997;28;20061;-52
2020/12/31 09:31:46;;;;;;;19.17;14.82;;;;;;;-146.19;100.00;63747.78;5023579;28;20818;-54
2020/12/31 09:34:12;;;;;;;12.10;10.90;;;;;;;-146.19;100.00;63747.78;5023143;28;20033;-49
2020/12/31 09:36:37;;;;;;;9.57;6.88;;;;;;;-146.19;100.00;63747.78;5021413;28;20049;-53
2020/12/31 09:39:03;;;;;;;7.32;5.35;;;;;;;-146.19;100.00;63747.78;5022807;28;20037;-57
2020/12/31 09:41:28;;;;;;;14.05;6.68;;;;;;;-146.19;100.00;63747.78;5024633;28;20120;-53
2020/12/31 09:43:54;;;;;;;21.38;13.38;;;;;;;-146.19;100.00;63747.78;5022815;28;20047;-52
2020/12/31 09:46:21;;;;;;;34.60;17.40;;;;;;;-146.19;100.00;63747.78;5022212;28;20147;-56
2020/12/31 09:48:48;;;;;;;21.88;13.80;;;;;;;-146.19;100.00;63747.78;5023894;28;20780;-57
2020/12/31 09:51:13;;;;;;;49.15;35.78;;;;;;;-146.19;100.00;63747.78;5026394;28;20456;-54
2020/12/31 09:53:40;;;;;;;61.38;40.53;;;;;;;-146.19;100.00;63747.78;5028177;28;20048;-52
2020/12/31 09:56:05;;;;;;;58.85;39.78;;;;;;;-146.19;100.00;63747.78;5029186;28;20041;-56
2020/12/31 09:58:31;;;;;;;56.22;32.03;;;;;;;-146.19;100.00;63747.78;5029072;28;20052;-57
2020/12/31 10:00:56;;;;;;;19.98;14.40;;;;;;;-146.19;100.00;63747.78;5029012;28;20093;-57
2020/12/31 10:03:22;;;;;;;22.70;11.02;;;;;;;-146.19;100.00;63747.78;5025178;28;20124;-52
2020/12/31 10:05:47;;;;;;;31.10;19.30;;;;;;;-146.19;100.00;63747.78;5026724;28;20083;-56
2020/12/31 10:08:13;;;;;;;16.50;8.60;;;;;;;-146.19;100.00;63747.78;5028343;28;20044;-52
2020/12/31 10:10:38;;;;;;;13.40;8.13;;;;;;;-146.19;100.00;63747.78;5029047;28;20151;-55
2020/12/31 10:13:06;;;;;;;26.02;12.43;;;;;;;-146.19;100.00;63747.78;5028638;28;20123;-56
2020/12/31 10:15:32;;;;;;;18.08;11.93;;;;;;;-146.19;100.00;63747.78;5027425;28;20037;-56
2020/12/31 10:17:57;;;;;;;10.68;7.65;;;;;;;-146.19;100.00;63747.78;5028370;28;20064;-55
2020/12/31 10:20:22;;;;;;;8.20;4.82;;;;;;;-146.19;100.00;63747.78;5028374;28;20148;-52
2020/12/31 10:22:48;;;;;;;17.48;8.00;;;;;;;-146.19;100.00;63747.78;5029362;28;20116;-55
2020/12/31 10:25:13;;;;;;;11.75;6.00;;;;;;;-146.19;100.00;63747.78;5031429;28;20076;-57
2020/12/31 10:27:39;;;;;;;6.18;4.20;;;;;;;-146.19;100.00;63747.78;5031562;28;20048;-54
2020/12/31 10:30:05;;;;;;;9.75;6.60;;;;;;;-146.19;100.00;63747.78;5021094;28;20084;-58
2020/12/31 10:32:31;;;;;;;6.25;3.33;;;;;;;-146.19;100.00;63747.78;5029908;28;20131;-57
2020/12/31 10:34:56;;;;;;;16.67;8.18;;;;;;;-146.19;100.00;63747.78;5030446;28;20145;-55
2020/12/31 10:37:22;;;;;;;16.15;7.63;;;;;;;-146.19;100.00;63747.78;5030170;28;20034;-56
2020/12/31 10:39:47;;;;;;;25.05;18.48;;;;;;;-146.19;100.00;63747.78;5030959;28;20400;-57
2020/12/31 10:42:13;;;;;;;12.07;6.18;;;;;;;-146.19;100.00;63747.78;5031252;28;20361;-58
2020/12/31 10:44:38;;;;;;;10.57;4.18;;;;;;;-146.19;100.00;63747.78;5031041;28;20039;-56
2020/12/31 10:47:04;;;;;;;5.97;1.45;;;;;;;-146.19;100.00;63747.78;5030721;28;20041;-55
2020/12/31 10:49:29;;;;;;;4.38;1.38;;;;;;;-146.19;100.00;63747.78;5030721;28;20472;-58
2020/12/31 10:51:55;;;;;;;9.43;2.65;;;;;;;-146.19;100.00;63747.78;5031250;28;20515;-57
2020/12/31 10:54:20;;;;;;;5.20;3.00;;;;;;;-146.19;100.00;63747.78;5031120;28;20481;-56
2020/12/31 10:56:48;;;;;;;7.00;3.35;;;;;;;-146.19;100.00;63747.78;5031050;28;20033;-57
2020/12/31 10:59:13;;;;;;;3.80;2.20;;;;;;;-146.19;100.00;63747.78;5030656;28;20404;-55
2020/12/31 11:01:39;;;;;;;11.13;3.17;;;;;;;-146.19;100.00;63747.78;5030519;28;20037;-52
2020/12/31 11:04:04;;;;;;;7.00;4.13;;;;;;;-146.19;100.00;63747.78;5030738;28;20037;-67
2020/12/31 11:06:30;;;;;;;20.02;10.60;;;;;;;-146.19;100.00;63747.78;5030564;28;20029;-66
2020/12/31 11:08:56;;;;;;;10.32;6.72;;;;;;;-146.19;100.00;63747.78;5030447;28;20037;-65
2020/12/31 11:11:27;;;;;;;8.80;5.93;;;;;;;-146.19;100.00;63747.78;5030674;28;20041;-65
2020/12/31 11:13:53;;;;;;;8.43;5.30;;;;;;;-146.19;100.00;63747.78;5030623;28;20625;-65
2020/12/31 11:16:19;;;;;;;8.43;5.05;;;;;;;-146.19;100.00;63747.78;5029299;28;20693;-64
2020/12/31 11:18:45;;;;;;;4.95;2.60;;;;;;;-146.19;100.00;63747.78;5030130;28;20041;-64
2020/12/31 11:21:13;;;;;;;3.90;2.80;;;;;;;-146.19;100.00;63747.78;5030466;28;20510;-65